createdAt,value
2023-02-11T00:01:35.013Z,9.82
2023-02-11T00:04:02.505Z,9.95
2023-02-11T00:06:30.658Z,9.90
2023-02-11T00:08:57.664Z,10.25
2023-02-11T00:11:26.537Z,9.50
2023-02-11T00:13:53.139Z,10.15
2023-02-11T00:16:21.253Z,10.25
2023-02-11T00:18:48.705Z,10.45
2023-02-11T00:21:17.722Z,9.90
2023-02-11T00:23:45.686Z,10.82
2023-02-11T00:26:17.882Z,10.48
2023-02-11T00:28:46.266Z,10.82
2023-02-11T00:31:14.047Z,10.90
2023-02-11T00:33:41.337Z,9.63
2023-02-11T00:36:11.729Z,9.50
2023-02-11T00:38:38.413Z,9.25
2023-02-11T00:41:06.069Z,9.63
2023-02-11T00:43:32.638Z,10.23
2023-02-11T00:45:59.787Z,10.32
2023-02-11T00:48:26.535Z,9.93
2023-02-11T00:50:53.234Z,11.18
2023-02-11T00:53:19.848Z,9.93
2023-02-11T00:55:46.433Z,10.02
2023-02-11T00:58:13.017Z,9.90
2023-02-11T01:00:39.575Z,10.68
2023-02-11T01:03:06.609Z,10.15
2023-02-11T01:05:33.500Z,10.25
2023-02-11T01:08:00.170Z,10.40
2023-02-11T01:10:27.060Z,9.23
2023-02-11T01:12:53.650Z,10.18
2023-02-11T01:15:21.466Z,9.95
2023-02-11T01:17:48.364Z,10.05
2023-02-11T01:20:21.932Z,10.45
2023-02-11T01:22:48.694Z,10.25
2023-02-11T01:25:15.851Z,9.50
2023-02-11T01:27:42.798Z,9.82
2023-02-11T01:30:12.085Z,9.77
2023-02-11T01:32:39.694Z,9.68
2023-02-11T01:35:07.092Z,9.25
2023-02-11T01:37:36.172Z,9.77
2023-02-11T01:40:06.017Z,10.15
2023-02-11T01:42:34.670Z,10.20
2023-02-11T01:45:21.686Z,9.25
2023-02-11T01:47:48.273Z,10.23
2023-02-11T01:50:14.905Z,10.10
2023-02-11T01:52:42.612Z,9.50
2023-02-11T01:55:31.272Z,9.27
2023-02-11T01:58:03.127Z,10.40
2023-02-11T02:00:38.894Z,10.27
2023-02-11T02:03:15.317Z,10.50
2023-02-11T02:05:57.064Z,10.25
2023-02-11T02:08:35.781Z,10.27
2023-02-11T02:11:03.582Z,10.57
2023-02-11T02:13:33.916Z,11.18
2023-02-11T02:16:09.518Z,8.50
2023-02-11T02:18:39.330Z,9.98
2023-02-11T02:21:43.244Z,9.80
2023-02-11T02:24:38.294Z,10.00
2023-02-11T02:27:13.861Z,9.90
2023-02-11T02:30:18.256Z,9.60
2023-02-11T02:33:16.746Z,9.88
2023-02-11T02:35:48.636Z,9.63
2023-02-11T02:38:33.487Z,9.88
2023-02-11T02:41:16.020Z,10.10
2023-02-11T02:43:49.645Z,10.90
2023-02-11T02:46:22.414Z,11.02
2023-02-11T02:48:52.571Z,10.50
2023-02-11T02:51:53.084Z,9.88
2023-02-11T02:54:41.365Z,10.07
2023-02-11T02:57:19.986Z,9.65
2023-02-11T03:00:13.125Z,9.93
2023-02-11T03:02:42.428Z,9.77
2023-02-11T03:05:18.650Z,9.98
2023-02-11T03:07:55.161Z,11.32
2023-02-11T03:10:28.786Z,9.27
2023-02-11T03:12:56.927Z,9.27
2023-02-11T03:15:28.212Z,9.60
2023-02-11T03:17:59.233Z,10.48
2023-02-11T03:20:28.670Z,10.40
2023-02-11T03:23:02.243Z,10.65
2023-02-11T03:25:34.732Z,9.95
2023-02-11T03:28:14.121Z,10.43
2023-02-11T03:30:53.439Z,10.57
2023-02-11T03:33:28.216Z,9.77
2023-02-11T03:35:59.967Z,10.73
2023-02-11T03:38:32.466Z,10.73
2023-02-11T03:41:01.847Z,10.15
2023-02-11T03:43:34.584Z,10.63
2023-02-11T03:46:03.550Z,10.23
2023-02-11T03:48:34.879Z,11.50
2023-02-11T03:51:05.377Z,10.60
2023-02-11T03:53:31.987Z,10.55
2023-02-11T03:56:02.997Z,11.07
2023-02-11T03:58:30.192Z,10.82
2023-02-11T04:00:56.895Z,11.85
2023-02-11T04:03:23.539Z,10.27
2023-02-11T04:05:50.436Z,10.88
2023-02-11T04:08:17.214Z,10.77
2023-02-11T04:10:43.837Z,10.38
2023-02-11T04:13:10.426Z,10.77
2023-02-11T04:15:37.252Z,10.70
2023-02-11T04:18:04.209Z,11.25
2023-02-11T04:20:31.015Z,11.38
2023-02-11T04:22:57.631Z,11.30
2023-02-11T04:25:24.296Z,11.20
2023-02-11T04:27:50.890Z,10.85
2023-02-11T04:30:17.630Z,11.25
2023-02-11T04:32:44.260Z,10.75
2023-02-11T04:35:10.848Z,11.13
2023-02-11T04:37:37.523Z,10.15
2023-02-11T04:40:04.609Z,10.75
2023-02-11T04:42:31.311Z,10.23
2023-02-11T04:44:57.912Z,9.70
2023-02-11T04:47:24.490Z,10.60
2023-02-11T04:49:51.049Z,10.60
2023-02-11T04:52:17.662Z,10.27
2023-02-11T04:54:44.384Z,10.75
2023-02-11T04:57:10.971Z,10.63
2023-02-11T04:59:37.676Z,10.95
2023-02-11T05:02:04.377Z,10.85
2023-02-11T05:04:31.197Z,10.40
2023-02-11T05:06:58.780Z,11.23
2023-02-11T05:09:25.430Z,10.68
2023-02-11T05:11:52.349Z,12.15
2023-02-11T05:14:19.394Z,11.98
2023-02-11T05:16:46.036Z,11.13
2023-02-11T05:19:12.684Z,12.48
2023-02-11T05:21:40.099Z,11.55
2023-02-11T05:24:09.090Z,11.50
2023-02-11T05:26:35.689Z,11.65
2023-02-11T05:29:02.392Z,11.02
2023-02-11T05:31:29.058Z,11.43
2023-02-11T05:33:55.652Z,11.55
2023-02-11T05:36:22.275Z,11.00
2023-02-11T05:38:49.042Z,11.57
2023-02-11T05:41:15.670Z,12.10
2023-02-11T05:43:42.316Z,12.32
2023-02-11T05:46:09.103Z,12.00
2023-02-11T05:48:35.730Z,11.80
2023-02-11T05:51:02.566Z,12.25
2023-02-11T05:53:29.164Z,11.68
2023-02-11T05:55:55.771Z,12.10
2023-02-11T05:58:22.368Z,11.80
2023-02-11T06:00:49.022Z,10.43
2023-02-11T06:03:15.779Z,12.88
2023-02-11T06:05:43.743Z,11.93
2023-02-11T06:08:10.650Z,11.32
2023-02-11T06:10:37.326Z,12.45
2023-02-11T06:13:04.366Z,11.70
2023-02-11T06:15:30.977Z,11.98
2023-02-11T06:17:57.589Z,12.07
2023-02-11T06:20:24.250Z,11.10
2023-02-11T06:22:50.888Z,13.43
2023-02-11T06:25:17.556Z,12.85
2023-02-11T06:27:44.376Z,12.02
2023-02-11T06:30:11.733Z,13.20
2023-02-11T06:32:46.114Z,12.43
2023-02-11T06:35:14.683Z,12.13
2023-02-11T06:37:42.388Z,11.75
2023-02-11T06:40:10.175Z,11.32
2023-02-11T06:42:39.355Z,11.10
2023-02-11T06:45:08.987Z,12.13
2023-02-11T06:47:35.859Z,12.43
2023-02-11T06:50:02.654Z,12.02
2023-02-11T06:52:30.731Z,13.25
2023-02-11T06:54:58.770Z,10.95
2023-02-11T06:57:26.880Z,12.20
2023-02-11T06:59:56.232Z,12.75
2023-02-11T07:02:24.372Z,11.77
2023-02-11T07:04:52.620Z,12.00
2023-02-11T07:07:20.902Z,11.23
2023-02-11T07:09:49.013Z,11.13
2023-02-11T07:12:17.885Z,11.00
2023-02-11T07:14:48.554Z,10.73
2023-02-11T07:19:44.773Z,12.65
2023-02-11T07:22:12.381Z,11.52
2023-02-11T07:24:40.848Z,12.18
2023-02-11T07:27:09.100Z,11.52
2023-02-11T07:29:36.825Z,11.80
2023-02-11T07:32:05.238Z,11.65
2023-02-11T07:34:33.644Z,11.80
2023-02-11T07:37:01.989Z,11.93
2023-02-11T07:39:30.208Z,12.38
2023-02-11T07:41:58.703Z,12.35
2023-02-11T07:44:28.142Z,11.23
2023-02-11T07:46:56.221Z,13.07
2023-02-11T07:49:24.444Z,12.73
2023-02-11T07:51:52.536Z,13.05
2023-02-11T07:54:20.411Z,12.68
2023-02-11T07:56:48.454Z,10.90
2023-02-11T07:59:16.913Z,12.65
2023-02-11T08:01:45.330Z,13.43
2023-02-11T08:04:13.558Z,12.98
2023-02-11T08:06:43.983Z,11.98
2023-02-11T08:09:17.448Z,12.45
2023-02-11T08:11:46.364Z,12.63
2023-02-11T08:14:14.022Z,12.20
2023-02-11T08:16:42.625Z,12.45
2023-02-11T08:19:16.430Z,11.93
2023-02-11T08:21:45.242Z,12.85
2023-02-11T08:24:15.417Z,12.50
2023-02-11T08:26:44.973Z,12.80
2023-02-11T08:29:15.811Z,12.13
2023-02-11T08:31:46.711Z,11.77
2023-02-11T08:34:14.467Z,11.23
2023-02-11T08:36:42.452Z,12.07
2023-02-11T08:39:21.271Z,11.20
2023-02-11T08:41:53.502Z,11.65
2023-02-11T08:44:21.326Z,10.50
2023-02-11T08:46:48.386Z,11.88
2023-02-11T08:49:16.292Z,11.55
2023-02-11T08:51:43.452Z,11.60
2023-02-11T08:54:10.729Z,11.70
2023-02-11T08:56:38.372Z,12.15
2023-02-11T08:59:05.530Z,11.63
2023-02-11T09:01:33.024Z,11.52
2023-02-11T09:03:59.732Z,11.40
2023-02-11T09:06:27.586Z,10.80
2023-02-11T09:08:55.969Z,11.23
2023-02-11T09:11:30.045Z,10.38
2023-02-11T09:13:56.895Z,11.13
2023-02-11T09:16:26.542Z,10.70
2023-02-11T09:18:55.818Z,11.30
2023-02-11T09:21:22.817Z,11.23
2023-02-11T09:23:49.843Z,10.65
2023-02-11T09:26:25.696Z,11.73
2023-02-11T09:28:52.868Z,11.30
2023-02-11T09:31:22.420Z,11.70
2023-02-11T09:33:51.613Z,10.80
2023-02-11T09:36:21.158Z,11.45
2023-02-11T09:38:48.786Z,10.95
2023-02-11T09:41:24.492Z,11.80
2023-02-11T09:43:54.194Z,11.77
2023-02-11T09:46:21.912Z,10.90
2023-02-11T09:48:52.962Z,11.35
2023-02-11T09:51:28.639Z,11.65
2023-02-11T09:54:02.140Z,11.65
2023-02-11T09:56:31.159Z,10.45
2023-02-11T09:58:57.975Z,11.57
2023-02-11T10:01:53.612Z,10.95
2023-02-11T10:04:49.442Z,11.80
2023-02-11T10:07:30.498Z,11.23
2023-02-11T10:10:21.353Z,12.50
2023-02-11T10:12:53.549Z,11.48
2023-02-11T10:15:41.729Z,11.82
2023-02-11T10:18:26.992Z,11.20
2023-02-11T10:21:24.219Z,11.27
2023-02-11T10:23:54.710Z,12.25
2023-02-11T10:26:21.796Z,11.32
2023-02-11T10:28:53.508Z,12.20
2023-02-11T10:31:34.086Z,12.23
2023-02-11T10:34:05.287Z,11.68
2023-02-11T10:36:38.873Z,11.52
2023-02-11T10:39:17.394Z,12.15
2023-02-11T10:41:49.236Z,10.65
2023-02-11T10:44:24.933Z,10.77
2023-02-11T10:46:52.180Z,11.38
2023-02-11T10:49:45.476Z,11.23
2023-02-11T10:52:21.247Z,11.18
2023-02-11T10:55:01.510Z,10.88
2023-02-11T10:57:34.210Z,10.90
2023-02-11T11:00:22.857Z,11.77
2023-02-11T11:02:56.088Z,12.32
2023-02-11T11:05:33.133Z,11.38
2023-02-11T11:08:10.473Z,10.07
2023-02-11T11:10:44.506Z,10.32
2023-02-11T11:13:24.414Z,10.77
2023-02-11T11:16:29.857Z,11.52
2023-02-11T11:19:08.695Z,10.32
2023-02-11T11:21:46.891Z,10.38
2023-02-11T11:24:29.452Z,10.60
2023-02-11T11:26:59.653Z,11.23
2023-02-11T11:29:35.640Z,11.45
2023-02-11T11:32:16.901Z,10.20
2023-02-11T11:34:57.147Z,11.07
2023-02-11T11:37:28.914Z,10.82
2023-02-11T11:40:16.970Z,11.55
2023-02-11T11:42:43.966Z,9.88
2023-02-11T11:45:19.564Z,10.85
2023-02-11T11:48:18.489Z,9.48
2023-02-11T11:50:47.154Z,9.98
2023-02-11T11:53:40.237Z,10.85
2023-02-11T11:56:14.106Z,11.32
2023-02-11T11:58:40.918Z,11.50
2023-02-11T12:01:20.916Z,10.93
2023-02-11T12:04:25.153Z,10.65
2023-02-11T12:07:22.820Z,11.27
2023-02-11T12:10:08.154Z,9.68
2023-02-11T12:12:47.022Z,11.05
2023-02-11T12:15:39.203Z,10.68
2023-02-11T12:18:05.716Z,10.20
2023-02-11T12:21:11.019Z,11.02
2023-02-11T12:24:15.697Z,9.52
2023-02-11T12:27:01.020Z,9.90
2023-02-11T12:29:46.373Z,10.85
2023-02-11T12:32:31.976Z,11.05
2023-02-11T12:35:11.215Z,10.52
2023-02-11T12:37:57.916Z,10.88
2023-02-11T12:40:50.800Z,10.18
2023-02-11T12:43:24.851Z,10.55
2023-02-11T12:46:11.846Z,10.52
2023-02-11T12:48:44.547Z,9.95
2023-02-11T12:51:49.668Z,10.77
2023-02-11T12:54:45.369Z,9.85
2023-02-11T12:57:32.200Z,9.98
2023-02-11T13:00:00.343Z,10.30
2023-02-11T13:03:04.077Z,10.32
2023-02-11T13:05:49.653Z,10.98
2023-02-11T13:08:18.877Z,10.07
2023-02-11T13:11:17.712Z,11.43
2023-02-11T13:13:55.411Z,10.40
2023-02-11T13:16:48.836Z,10.30
2023-02-11T13:19:30.823Z,10.73
2023-02-11T13:22:07.596Z,10.05
2023-02-11T13:25:15.770Z,9.60
2023-02-11T13:28:00.574Z,11.20
2023-02-11T13:30:35.369Z,11.00
2023-02-11T13:33:04.869Z,9.90
2023-02-11T13:35:34.102Z,10.10
2023-02-11T13:38:03.661Z,10.80
2023-02-11T13:40:34.309Z,9.95
2023-02-11T13:45:45.862Z,9.68
2023-02-11T13:48:25.847Z,11.02
2023-02-11T13:50:56.572Z,10.38
2023-02-11T13:56:03.872Z,8.88
2023-02-11T13:58:30.433Z,10.27
2023-02-11T14:00:58.462Z,10.18
2023-02-11T14:03:51.159Z,10.40
2023-02-11T14:06:39.894Z,9.88
2023-02-11T14:09:39.947Z,9.88
2023-02-11T14:12:33.099Z,10.55
2023-02-11T14:15:04.795Z,9.02
2023-02-11T14:17:34.769Z,9.13
2023-02-11T14:20:04.649Z,9.85
2023-02-11T14:22:47.609Z,10.05
2023-02-11T14:25:25.400Z,9.32
2023-02-11T14:28:08.009Z,10.18
2023-02-11T14:30:40.448Z,8.73
2023-02-11T14:33:16.153Z,9.68
2023-02-11T14:36:06.804Z,9.48
2023-02-11T14:38:42.577Z,9.93
2023-02-11T14:41:23.564Z,10.57
2023-02-11T14:43:55.323Z,8.90
2023-02-11T14:46:23.534Z,10.30
2023-02-11T14:48:53.764Z,10.23
2023-02-11T14:51:31.359Z,10.45
2023-02-11T14:54:03.447Z,9.82
2023-02-11T14:56:32.076Z,10.70
2023-02-11T14:58:58.853Z,10.65
2023-02-11T15:01:34.032Z,10.45
2023-02-11T15:04:06.117Z,10.32
2023-02-11T15:06:34.242Z,9.20
2023-02-11T15:09:05.085Z,9.63
2023-02-11T15:11:37.967Z,10.35
2023-02-11T15:14:34.984Z,9.45
2023-02-11T15:17:06.200Z,9.98
2023-02-11T15:19:42.090Z,9.65
2023-02-11T15:22:20.027Z,9.93
2023-02-11T15:24:58.508Z,10.20
2023-02-11T15:27:25.808Z,9.95
2023-02-11T15:29:52.890Z,9.95
2023-02-11T15:32:25.091Z,10.95
2023-02-11T15:34:53.886Z,10.65
2023-02-11T15:37:26.494Z,10.52
2023-02-11T15:39:54.941Z,9.65
2023-02-11T15:42:26.109Z,9.63
2023-02-11T15:45:29.168Z,10.13
2023-02-11T15:48:21.504Z,8.55
2023-02-11T15:50:54.708Z,10.40
2023-02-11T15:53:29.606Z,9.80
2023-02-11T15:56:32.998Z,10.38
2023-02-11T15:59:09.022Z,10.50
2023-02-11T16:01:38.105Z,9.93
2023-02-11T16:04:05.667Z,10.10
2023-02-11T16:06:39.879Z,10.55
2023-02-11T16:09:26.739Z,9.35
2023-02-11T16:11:56.580Z,9.85
2023-02-11T16:14:32.994Z,10.13
2023-02-11T16:17:04.770Z,10.50
2023-02-11T16:19:33.854Z,9.15
2023-02-11T16:22:07.764Z,9.40
2023-02-11T16:24:36.429Z,9.35
2023-02-11T16:27:06.705Z,10.23
2023-02-11T16:29:36.684Z,9.70
2023-02-11T16:32:09.970Z,9.65
2023-02-11T16:34:37.394Z,9.85
2023-02-11T16:37:05.536Z,9.82
2023-02-11T16:39:32.202Z,10.05
2023-02-11T16:41:59.302Z,10.50
2023-02-11T16:44:26.374Z,10.40
2023-02-11T16:46:53.259Z,10.02
2023-02-11T16:49:24.712Z,11.20
2023-02-11T16:51:56.534Z,11.10
2023-02-11T16:54:24.062Z,10.80
2023-02-11T16:56:50.671Z,10.63
2023-02-11T16:59:17.244Z,11.02
2023-02-11T17:01:45.450Z,12.07
2023-02-11T17:04:27.597Z,12.40
2023-02-11T17:06:55.989Z,10.80
2023-02-11T17:09:30.350Z,11.15
2023-02-11T17:11:57.631Z,12.07
2023-02-11T17:14:24.388Z,12.18
2023-02-11T17:16:51.071Z,12.15
2023-02-11T17:19:19.678Z,12.68
2023-02-11T17:21:48.790Z,13.30
2023-02-11T17:24:15.966Z,11.75
2023-02-11T17:26:43.725Z,14.00
2023-02-11T17:29:12.786Z,14.00
2023-02-11T17:31:40.543Z,13.93
2023-02-11T17:34:07.963Z,12.40
2023-02-11T17:36:34.956Z,13.60
2023-02-11T17:39:01.755Z,13.48
2023-02-11T17:41:28.777Z,14.90
2023-02-11T17:43:58.422Z,12.88
2023-02-11T17:46:25.215Z,13.85
2023-02-11T17:48:53.208Z,13.77
2023-02-11T17:51:34.075Z,13.38
2023-02-11T17:54:03.339Z,13.35
2023-02-11T17:56:33.299Z,14.80
2023-02-11T17:59:02.307Z,13.68
2023-02-11T18:01:31.032Z,14.73
2023-02-11T18:03:57.852Z,14.45
2023-02-11T18:06:24.844Z,14.60
2023-02-11T18:08:52.156Z,14.32
2023-02-11T18:11:19.085Z,15.30
2023-02-11T18:13:45.801Z,13.32
2023-02-11T18:16:15.653Z,13.80
2023-02-11T18:18:43.633Z,14.18
2023-02-11T18:21:15.392Z,14.02
2023-02-11T18:23:42.170Z,14.68
2023-02-11T18:26:10.567Z,14.73
2023-02-11T18:28:38.298Z,14.27
2023-02-11T18:31:05.860Z,14.48
2023-02-11T18:33:33.073Z,14.68
2023-02-11T18:35:59.841Z,14.15
2023-02-11T18:38:26.563Z,13.45
2023-02-11T18:40:56.675Z,13.05
2023-02-11T18:43:23.342Z,14.27
2023-02-11T18:45:50.986Z,13.55
2023-02-11T18:48:18.540Z,13.50
2023-02-11T18:50:46.315Z,13.55
2023-02-11T18:53:14.032Z,13.20
2023-02-11T18:55:42.941Z,13.20
2023-02-11T18:58:09.770Z,14.40
2023-02-11T19:00:45.592Z,12.88
2023-02-11T19:03:12.211Z,13.85
2023-02-11T19:05:47.165Z,14.00
2023-02-11T19:08:14.300Z,14.00
2023-02-11T19:10:47.147Z,12.80
2023-02-11T19:13:14.777Z,12.27
2023-02-11T19:15:42.583Z,13.50
2023-02-11T19:18:09.422Z,13.20
2023-02-11T19:20:39.318Z,12.50
2023-02-11T19:23:05.867Z,13.25
2023-02-11T19:25:32.928Z,13.05
2023-02-11T19:28:00.309Z,12.85
2023-02-11T19:30:27.461Z,13.35
2023-02-11T19:32:57.052Z,14.80
2023-02-11T19:35:24.778Z,14.55
2023-02-11T19:37:51.377Z,15.43
2023-02-11T19:40:18.190Z,16.45
2023-02-11T19:42:44.849Z,15.65
2023-02-11T19:45:11.465Z,16.52
2023-02-11T19:47:38.562Z,15.35
2023-02-11T19:50:06.057Z,13.65
2023-02-11T19:52:32.908Z,14.95
2023-02-11T19:55:00.413Z,13.02
2023-02-11T19:57:27.333Z,12.73
2023-02-11T19:59:55.045Z,13.70
2023-02-11T20:02:21.678Z,11.90
2023-02-11T20:04:48.395Z,13.00
2023-02-11T20:07:14.998Z,13.07
2023-02-11T20:09:42.548Z,11.82
2023-02-11T20:12:10.034Z,13.07
2023-02-11T20:14:36.814Z,13.13
2023-02-11T20:17:03.655Z,12.80
2023-02-11T20:19:30.679Z,12.90
2023-02-11T20:21:57.471Z,12.70
2023-02-11T20:24:25.454Z,12.02
2023-02-11T20:26:55.623Z,11.55
2023-02-11T20:29:23.401Z,11.70
2023-02-11T20:31:50.502Z,12.27
2023-02-11T20:34:17.641Z,12.07
2023-02-11T20:36:51.350Z,11.77
2023-02-11T20:39:18.643Z,12.32
2023-02-11T20:41:46.137Z,12.93
2023-02-11T20:44:13.817Z,12.85
2023-02-11T20:46:43.867Z,11.57
2023-02-11T20:49:12.922Z,12.90
2023-02-11T20:51:39.863Z,12.20
2023-02-11T20:54:07.506Z,12.43
2023-02-11T20:56:36.779Z,12.68
2023-02-11T20:59:04.292Z,12.52
2023-02-11T21:01:37.058Z,12.50
2023-02-11T21:04:07.023Z,12.18
2023-02-11T21:06:37.776Z,13.48
2023-02-11T21:09:06.961Z,13.57
2023-02-11T21:11:33.736Z,13.55
2023-02-11T21:14:00.871Z,12.77
2023-02-11T21:16:27.826Z,13.43
2023-02-11T21:18:55.374Z,13.02
2023-02-11T21:21:22.482Z,13.45
2023-02-11T21:23:49.040Z,13.77
2023-02-11T21:26:16.889Z,13.75
2023-02-11T21:28:44.210Z,13.60
2023-02-11T21:31:22.645Z,13.45
2023-02-11T21:33:50.576Z,13.88
2023-02-11T21:36:17.741Z,14.18
2023-02-11T21:38:44.593Z,13.52
2023-02-11T21:41:12.101Z,14.10
2023-02-11T21:43:38.850Z,13.63
2023-02-11T21:46:11.709Z,14.30
2023-02-11T21:48:38.757Z,13.65
2023-02-11T21:51:07.730Z,14.00
2023-02-11T21:53:34.854Z,13.57
2023-02-11T21:56:10.284Z,13.50
2023-02-11T21:58:37.058Z,13.93
2023-02-11T22:01:25.416Z,13.45
2023-02-11T22:03:52.096Z,13.35
2023-02-11T22:06:21.669Z,13.85
2023-02-11T22:08:52.241Z,13.80
2023-02-11T22:11:19.916Z,13.93
2023-02-11T22:13:46.962Z,14.25
2023-02-11T22:16:16.614Z,13.88
2023-02-11T22:18:46.624Z,13.73
2023-02-11T22:21:16.282Z,13.15
2023-02-11T22:23:42.895Z,14.13
2023-02-11T22:26:22.041Z,14.10
2023-02-11T22:28:49.791Z,15.05
2023-02-11T22:31:19.758Z,14.38
2023-02-11T22:33:46.757Z,13.98
2023-02-11T22:36:16.852Z,13.82
2023-02-11T22:38:43.630Z,13.52
2023-02-11T22:41:11.253Z,13.45
2023-02-11T22:43:38.539Z,15.32
2023-02-11T22:46:07.219Z,14.63
2023-02-11T22:48:35.266Z,13.43
2023-02-11T22:51:10.688Z,14.68
2023-02-11T22:53:37.391Z,14.70
2023-02-11T22:56:07.051Z,15.63
2023-02-11T22:58:34.380Z,15.47
2023-02-11T23:01:01.052Z,14.20
2023-02-11T23:03:28.202Z,14.85
2023-02-11T23:05:55.307Z,14.77
2023-02-11T23:08:22.051Z,15.82
2023-02-11T23:10:49.295Z,16.00
2023-02-11T23:13:16.078Z,15.95
2023-02-11T23:15:44.188Z,16.10
2023-02-11T23:18:11.858Z,15.80
2023-02-11T23:20:40.601Z,16.63
2023-02-11T23:23:07.544Z,15.68
2023-02-11T23:25:34.483Z,16.05
2023-02-11T23:28:01.667Z,14.75
2023-02-11T23:30:28.684Z,16.08
2023-02-11T23:32:55.346Z,16.00
2023-02-11T23:35:23.087Z,14.70
2023-02-11T23:37:51.157Z,16.17
2023-02-11T23:40:18.593Z,15.63
2023-02-11T23:42:45.723Z,15.25
2023-02-11T23:45:12.526Z,16.63
2023-02-11T23:47:39.724Z,14.98
2023-02-11T23:50:08.358Z,16.20
2023-02-11T23:52:35.438Z,16.85
2023-02-11T23:55:02.048Z,16.15
2023-02-11T23:57:28.741Z,16.55
2023-02-11T23:59:55.308Z,16.48
